sensor_id;sensor_type;location;lat;lon;timestamp;P1;durP1;ratioP1;P2;durP2;ratioP2
65182;SDS011;51771;51.068;-1.780;2024-02-21T00:00:47;7.93;;;2.35;;
65182;SDS011;51771;51.068;-1.780;2024-02-21T00:03:13;13.57;;;2.50;;
65182;SDS011;51771;51.068;-1.780;2024-02-21T00:05:38;12.68;;;2.42;;
65182;SDS011;51771;51.068;-1.780;2024-02-21T00:08:03;17.85;;;3.72;;
65182;SDS011;51771;51.068;-1.780;2024-02-21T00:10:29;19.10;;;2.65;;
65182;SDS011;51771;51.068;-1.780;2024-02-21T00:12:56;15.63;;;2.53;;
65182;SDS011;51771;51.068;-1.780;2024-02-21T00:15:22;11.70;;;2.33;;
65182;SDS011;51771;51.068;-1.780;2024-02-21T00:17:47;9.65;;;2.13;;
65182;SDS011;51771;51.068;-1.780;2024-02-21T00:20:13;10.38;;;2.28;;
65182;SDS011;51771;51.068;-1.780;2024-02-21T00:22:39;13.57;;;2.70;;
65182;SDS011;51771;51.068;-1.780;2024-02-21T00:25:04;15.32;;;2.92;;
65182;SDS011;51771;51.068;-1.780;2024-02-21T00:27:30;11.90;;;2.90;;
65182;SDS011;51771;51.068;-1.780;2024-02-21T00:29:56;12.63;;;3.50;;
65182;SDS011;51771;51.068;-1.780;2024-02-21T00:32:21;15.45;;;3.15;;
65182;SDS011;51771;51.068;-1.780;2024-02-21T00:34:46;11.65;;;2.80;;
65182;SDS011;51771;51.068;-1.780;2024-02-21T00:37:12;10.32;;;2.38;;
65182;SDS011;51771;51.068;-1.780;2024-02-21T00:39:37;11.20;;;3.33;;
65182;SDS011;51771;51.068;-1.780;2024-02-21T00:42:02;16.30;;;3.03;;
65182;SDS011;51771;51.068;-1.780;2024-02-21T00:44:28;13.15;;;3.03;;
65182;SDS011;51771;51.068;-1.780;2024-02-21T00:46:53;12.77;;;3.83;;
65182;SDS011;51771;51.068;-1.780;2024-02-21T00:49:19;15.65;;;2.65;;
65182;SDS011;51771;51.068;-1.780;2024-02-21T00:51:44;15.25;;;2.92;;
65182;SDS011;51771;51.068;-1.780;2024-02-21T00:54:09;13.50;;;3.22;;
65182;SDS011;51771;51.068;-1.780;2024-02-21T00:56:35;15.85;;;3.72;;
65182;SDS011;51771;51.068;-1.780;2024-02-21T00:59:00;14.82;;;4.25;;
65182;SDS011;51771;51.068;-1.780;2024-02-21T01:01:25;18.67;;;3.60;;
65182;SDS011;51771;51.068;-1.780;2024-02-21T01:03:51;11.85;;;2.92;;
65182;SDS011;51771;51.068;-1.780;2024-02-21T01:06:18;18.23;;;2.80;;
65182;SDS011;51771;51.068;-1.780;2024-02-21T01:08:44;15.00;;;3.55;;
65182;SDS011;51771;51.068;-1.780;2024-02-21T01:11:10;8.15;;;2.45;;
65182;SDS011;51771;51.068;-1.780;2024-02-21T01:13:35;14.45;;;2.75;;
65182;SDS011;51771;51.068;-1.780;2024-02-21T01:16:01;16.45;;;3.35;;
65182;SDS011;51771;51.068;-1.780;2024-02-21T01:18:26;9.35;;;1.90;;
65182;SDS011;51771;51.068;-1.780;2024-02-21T01:20:51;11.88;;;2.20;;
65182;SDS011;51771;51.068;-1.780;2024-02-21T01:23:17;9.57;;;1.70;;
65182;SDS011;51771;51.068;-1.780;2024-02-21T01:25:42;12.93;;;2.28;;
65182;SDS011;51771;51.068;-1.780;2024-02-21T01:28:08;15.45;;;2.50;;
65182;SDS011;51771;51.068;-1.780;2024-02-21T01:30:34;14.32;;;2.60;;
65182;SDS011;51771;51.068;-1.780;2024-02-21T01:33:00;9.50;;;1.65;;
65182;SDS011;51771;51.068;-1.780;2024-02-21T01:35:25;10.32;;;1.85;;
65182;SDS011;51771;51.068;-1.780;2024-02-21T01:37:50;16.17;;;2.50;;
65182;SDS011;51771;51.068;-1.780;2024-02-21T01:40:16;6.38;;;1.70;;
65182;SDS011;51771;51.068;-1.780;2024-02-21T01:42:42;7.43;;;1.45;;
65182;SDS011;51771;51.068;-1.780;2024-02-21T01:45:07;8.73;;;1.75;;
65182;SDS011;51771;51.068;-1.780;2024-02-21T01:47:33;9.35;;;2.15;;
65182;SDS011;51771;51.068;-1.780;2024-02-21T01:49:59;6.20;;;1.50;;
65182;SDS011;51771;51.068;-1.780;2024-02-21T01:52:26;11.82;;;2.17;;
65182;SDS011;51771;51.068;-1.780;2024-02-21T01:54:52;8.68;;;1.80;;
65182;SDS011;51771;51.068;-1.780;2024-02-21T01:57:18;14.40;;;2.05;;
65182;SDS011;51771;51.068;-1.780;2024-02-21T01:59:43;9.70;;;1.75;;
65182;SDS011;51771;51.068;-1.780;2024-02-21T02:02:09;9.23;;;1.50;;
65182;SDS011;51771;51.068;-1.780;2024-02-21T02:04:34;13.23;;;3.67;;
65182;SDS011;51771;51.068;-1.780;2024-02-21T02:07:01;7.15;;;1.92;;
65182;SDS011;51771;51.068;-1.780;2024-02-21T02:09:30;15.18;;;2.60;;
65182;SDS011;51771;51.068;-1.780;2024-02-21T02:11:55;12.90;;;2.58;;
65182;SDS011;51771;51.068;-1.780;2024-02-21T02:14:20;10.25;;;1.90;;
65182;SDS011;51771;51.068;-1.780;2024-02-21T02:16:46;10.15;;;1.90;;
65182;SDS011;51771;51.068;-1.780;2024-02-21T02:19:12;6.85;;;1.70;;
65182;SDS011;51771;51.068;-1.780;2024-02-21T02:21:39;10.65;;;3.33;;
65182;SDS011;51771;51.068;-1.780;2024-02-21T02:24:07;8.70;;;2.45;;
65182;SDS011;51771;51.068;-1.780;2024-02-21T02:26:33;15.02;;;2.20;;
65182;SDS011;51771;51.068;-1.780;2024-02-21T02:28:58;8.00;;;2.03;;
65182;SDS011;51771;51.068;-1.780;2024-02-21T02:31:26;11.07;;;1.90;;
65182;SDS011;51771;51.068;-1.780;2024-02-21T02:33:52;8.73;;;2.40;;
65182;SDS011;51771;51.068;-1.780;2024-02-21T02:36:17;8.57;;;1.73;;
65182;SDS011;51771;51.068;-1.780;2024-02-21T02:38:43;18.20;;;2.50;;
65182;SDS011;51771;51.068;-1.780;2024-02-21T02:41:08;15.98;;;2.00;;
65182;SDS011;51771;51.068;-1.780;2024-02-21T02:43:33;12.52;;;1.75;;
65182;SDS011;51771;51.068;-1.780;2024-02-21T02:45:59;11.82;;;2.33;;
65182;SDS011;51771;51.068;-1.780;2024-02-21T02:48:24;8.82;;;1.92;;
65182;SDS011;51771;51.068;-1.780;2024-02-21T02:50:49;9.75;;;1.88;;
65182;SDS011;51771;51.068;-1.780;2024-02-21T02:53:15;14.65;;;2.53;;
65182;SDS011;51771;51.068;-1.780;2024-02-21T02:55:40;8.65;;;1.58;;
65182;SDS011;51771;51.068;-1.780;2024-02-21T02:58:05;12.43;;;2.03;;
65182;SDS011;51771;51.068;-1.780;2024-02-21T03:00:31;8.18;;;1.67;;
65182;SDS011;51771;51.068;-1.780;2024-02-21T03:03:00;7.43;;;1.95;;
65182;SDS011;51771;51.068;-1.780;2024-02-21T03:05:28;5.95;;;1.73;;
65182;SDS011;51771;51.068;-1.780;2024-02-21T03:07:54;12.70;;;3.20;;
65182;SDS011;51771;51.068;-1.780;2024-02-21T03:10:20;15.35;;;1.90;;
65182;SDS011;51771;51.068;-1.780;2024-02-21T03:12:46;14.88;;;2.20;;
65182;SDS011;51771;51.068;-1.780;2024-02-21T03:15:11;10.40;;;1.73;;
65182;SDS011;51771;51.068;-1.780;2024-02-21T03:17:37;13.43;;;2.50;;
65182;SDS011;51771;51.068;-1.780;2024-02-21T03:20:03;8.88;;;2.30;;
65182;SDS011;51771;51.068;-1.780;2024-02-21T03:22:35;13.60;;;1.88;;
65182;SDS011;51771;51.068;-1.780;2024-02-21T03:25:01;10.80;;;2.45;;
65182;SDS011;51771;51.068;-1.780;2024-02-21T03:27:27;11.93;;;1.70;;
65182;SDS011;51771;51.068;-1.780;2024-02-21T03:29:52;9.45;;;1.75;;
65182;SDS011;51771;51.068;-1.780;2024-02-21T03:32:18;13.35;;;1.88;;
65182;SDS011;51771;51.068;-1.780;2024-02-21T03:34:43;13.57;;;2.05;;
65182;SDS011;51771;51.068;-1.780;2024-02-21T03:37:08;15.13;;;2.20;;
65182;SDS011;51771;51.068;-1.780;2024-02-21T03:39:34;12.93;;;2.05;;
65182;SDS011;51771;51.068;-1.780;2024-02-21T03:41:59;9.82;;;2.13;;
65182;SDS011;51771;51.068;-1.780;2024-02-21T03:44:29;9.77;;;1.65;;
65182;SDS011;51771;51.068;-1.780;2024-02-21T03:46:54;11.88;;;2.28;;
65182;SDS011;51771;51.068;-1.780;2024-02-21T03:49:20;13.13;;;2.08;;
65182;SDS011;51771;51.068;-1.780;2024-02-21T03:51:46;11.77;;;2.10;;
65182;SDS011;51771;51.068;-1.780;2024-02-21T03:54:11;9.98;;;1.50;;
65182;SDS011;51771;51.068;-1.780;2024-02-21T03:56:37;7.85;;;1.50;;
65182;SDS011;51771;51.068;-1.780;2024-02-21T03:59:04;7.70;;;1.77;;
65182;SDS011;51771;51.068;-1.780;2024-02-21T04:01:30;11.13;;;1.55;;
65182;SDS011;51771;51.068;-1.780;2024-02-21T04:03:56;10.27;;;2.15;;
65182;SDS011;51771;51.068;-1.780;2024-02-21T04:06:21;13.35;;;2.10;;
65182;SDS011;51771;51.068;-1.780;2024-02-21T04:08:46;7.63;;;1.33;;
65182;SDS011;51771;51.068;-1.780;2024-02-21T04:11:12;7.43;;;1.52;;
65182;SDS011;51771;51.068;-1.780;2024-02-21T04:13:37;15.60;;;1.85;;
65182;SDS011;51771;51.068;-1.780;2024-02-21T04:16:02;9.23;;;1.50;;
65182;SDS011;51771;51.068;-1.780;2024-02-21T04:18:28;10.38;;;1.40;;
65182;SDS011;51771;51.068;-1.780;2024-02-21T04:20:53;8.82;;;1.40;;
65182;SDS011;51771;51.068;-1.780;2024-02-21T04:23:19;11.95;;;1.58;;
65182;SDS011;51771;51.068;-1.780;2024-02-21T04:25:44;10.13;;;1.80;;
65182;SDS011;51771;51.068;-1.780;2024-02-21T04:28:09;10.60;;;2.03;;
65182;SDS011;51771;51.068;-1.780;2024-02-21T04:30:35;7.55;;;1.67;;
65182;SDS011;51771;51.068;-1.780;2024-02-21T04:33:00;7.68;;;1.55;;
65182;SDS011;51771;51.068;-1.780;2024-02-21T04:35:25;9.40;;;2.30;;
65182;SDS011;51771;51.068;-1.780;2024-02-21T04:37:51;8.48;;;2.40;;
65182;SDS011;51771;51.068;-1.780;2024-02-21T04:40:16;6.72;;;2.30;;
65182;SDS011;51771;51.068;-1.780;2024-02-21T04:42:42;15.43;;;2.47;;
65182;SDS011;51771;51.068;-1.780;2024-02-21T04:45:07;7.38;;;1.80;;
65182;SDS011;51771;51.068;-1.780;2024-02-21T04:47:33;5.85;;;1.25;;
65182;SDS011;51771;51.068;-1.780;2024-02-21T04:49:59;13.10;;;2.75;;
65182;SDS011;51771;51.068;-1.780;2024-02-21T04:52:25;10.63;;;1.73;;
65182;SDS011;51771;51.068;-1.780;2024-02-21T04:54:50;10.93;;;2.15;;
65182;SDS011;51771;51.068;-1.780;2024-02-21T04:57:16;14.23;;;2.17;;
65182;SDS011;51771;51.068;-1.780;2024-02-21T04:59:45;6.10;;;2.00;;
65182;SDS011;51771;51.068;-1.780;2024-02-21T05:02:12;12.55;;;2.83;;
65182;SDS011;51771;51.068;-1.780;2024-02-21T05:04:38;8.57;;;1.65;;
65182;SDS011;51771;51.068;-1.780;2024-02-21T05:07:04;8.75;;;2.45;;
65182;SDS011;51771;51.068;-1.780;2024-02-21T05:09:30;7.40;;;1.65;;
65182;SDS011;51771;51.068;-1.780;2024-02-21T05:11:56;13.82;;;2.97;;
65182;SDS011;51771;51.068;-1.780;2024-02-21T05:14:23;5.68;;;1.60;;
65182;SDS011;51771;51.068;-1.780;2024-02-21T05:16:49;5.53;;;1.40;;
65182;SDS011;51771;51.068;-1.780;2024-02-21T05:19:14;12.15;;;1.90;;
65182;SDS011;51771;51.068;-1.780;2024-02-21T05:21:39;10.68;;;1.90;;
65182;SDS011;51771;51.068;-1.780;2024-02-21T05:24:05;9.35;;;1.90;;
65182;SDS011;51771;51.068;-1.780;2024-02-21T05:26:30;8.07;;;1.90;;
65182;SDS011;51771;51.068;-1.780;2024-02-21T05:28:57;8.80;;;1.50;;
65182;SDS011;51771;51.068;-1.780;2024-02-21T05:31:24;12.23;;;1.75;;
65182;SDS011;51771;51.068;-1.780;2024-02-21T05:33:49;8.55;;;1.63;;
65182;SDS011;51771;51.068;-1.780;2024-02-21T05:36:14;13.02;;;1.75;;
65182;SDS011;51771;51.068;-1.780;2024-02-21T05:38:40;7.55;;;1.45;;
65182;SDS011;51771;51.068;-1.780;2024-02-21T05:41:05;8.15;;;1.70;;
65182;SDS011;51771;51.068;-1.780;2024-02-21T05:43:31;8.57;;;1.60;;
65182;SDS011;51771;51.068;-1.780;2024-02-21T05:45:56;7.95;;;1.48;;
65182;SDS011;51771;51.068;-1.780;2024-02-21T05:48:22;6.68;;;1.63;;
65182;SDS011;51771;51.068;-1.780;2024-02-21T05:50:48;12.20;;;1.77;;
65182;SDS011;51771;51.068;-1.780;2024-02-21T05:53:14;10.30;;;1.90;;
65182;SDS011;51771;51.068;-1.780;2024-02-21T05:55:40;9.05;;;1.70;;
65182;SDS011;51771;51.068;-1.780;2024-02-21T05:58:05;7.25;;;2.47;;
65182;SDS011;51771;51.068;-1.780;2024-02-21T06:00:31;7.13;;;1.55;;
65182;SDS011;51771;51.068;-1.780;2024-02-21T06:02:57;9.80;;;1.63;;
65182;SDS011;51771;51.068;-1.780;2024-02-21T06:05:22;9.75;;;2.00;;
65182;SDS011;51771;51.068;-1.780;2024-02-21T06:07:48;7.57;;;1.65;;
65182;SDS011;51771;51.068;-1.780;2024-02-21T06:10:13;7.43;;;1.77;;
65182;SDS011;51771;51.068;-1.780;2024-02-21T06:12:39;11.60;;;1.92;;
65182;SDS011;51771;51.068;-1.780;2024-02-21T06:15:04;11.85;;;1.77;;
65182;SDS011;51771;51.068;-1.780;2024-02-21T06:17:30;11.00;;;1.75;;
65182;SDS011;51771;51.068;-1.780;2024-02-21T06:19:55;11.80;;;2.00;;
65182;SDS011;51771;51.068;-1.780;2024-02-21T06:22:20;5.85;;;1.55;;
65182;SDS011;51771;51.068;-1.780;2024-02-21T06:24:46;10.35;;;2.40;;
65182;SDS011;51771;51.068;-1.780;2024-02-21T06:27:11;6.82;;;2.15;;
65182;SDS011;51771;51.068;-1.780;2024-02-21T06:29:37;6.72;;;1.98;;
65182;SDS011;51771;51.068;-1.780;2024-02-21T06:32:02;5.78;;;1.45;;
65182;SDS011;51771;51.068;-1.780;2024-02-21T06:34:29;7.00;;;2.05;;
65182;SDS011;51771;51.068;-1.780;2024-02-21T06:36:54;13.65;;;3.60;;
65182;SDS011;51771;51.068;-1.780;2024-02-21T06:39:20;8.10;;;2.03;;
65182;SDS011;51771;51.068;-1.780;2024-02-21T06:41:46;14.77;;;2.25;;
65182;SDS011;51771;51.068;-1.780;2024-02-21T06:44:12;8.82;;;1.70;;
65182;SDS011;51771;51.068;-1.780;2024-02-21T06:46:38;5.82;;;1.63;;
65182;SDS011;51771;51.068;-1.780;2024-02-21T06:49:03;8.18;;;1.85;;
65182;SDS011;51771;51.068;-1.780;2024-02-21T06:51:29;11.05;;;2.28;;
65182;SDS011;51771;51.068;-1.780;2024-02-21T06:53:55;12.77;;;2.50;;
65182;SDS011;51771;51.068;-1.780;2024-02-21T06:56:20;6.35;;;2.00;;
65182;SDS011;51771;51.068;-1.780;2024-02-21T06:58:51;6.40;;;1.73;;
65182;SDS011;51771;51.068;-1.780;2024-02-21T07:01:17;5.35;;;1.90;;
65182;SDS011;51771;51.068;-1.780;2024-02-21T07:03:42;7.63;;;2.00;;
65182;SDS011;51771;51.068;-1.780;2024-02-21T07:06:08;9.57;;;2.33;;
65182;SDS011;51771;51.068;-1.780;2024-02-21T07:08:33;9.40;;;1.73;;
65182;SDS011;51771;51.068;-1.780;2024-02-21T07:10:58;16.98;;;2.90;;
65182;SDS011;51771;51.068;-1.780;2024-02-21T07:13:24;7.95;;;2.30;;
65182;SDS011;51771;51.068;-1.780;2024-02-21T07:15:49;11.25;;;1.67;;
65182;SDS011;51771;51.068;-1.780;2024-02-21T07:18:14;9.75;;;2.03;;
65182;SDS011;51771;51.068;-1.780;2024-02-21T07:20:40;7.72;;;1.88;;
65182;SDS011;51771;51.068;-1.780;2024-02-21T07:23:06;8.63;;;1.65;;
65182;SDS011;51771;51.068;-1.780;2024-02-21T07:25:32;5.13;;;1.80;;
65182;SDS011;51771;51.068;-1.780;2024-02-21T07:27:58;8.60;;;1.80;;
65182;SDS011;51771;51.068;-1.780;2024-02-21T07:30:23;4.25;;;1.50;;
65182;SDS011;51771;51.068;-1.780;2024-02-21T07:32:49;5.70;;;1.50;;
65182;SDS011;51771;51.068;-1.780;2024-02-21T07:35:15;16.10;;;1.92;;
65182;SDS011;51771;51.068;-1.780;2024-02-21T07:37:40;10.77;;;2.00;;
65182;SDS011;51771;51.068;-1.780;2024-02-21T07:40:06;9.32;;;1.80;;
65182;SDS011;51771;51.068;-1.780;2024-02-21T07:42:37;6.55;;;1.75;;
65182;SDS011;51771;51.068;-1.780;2024-02-21T07:45:02;10.02;;;1.58;;
65182;SDS011;51771;51.068;-1.780;2024-02-21T07:47:28;7.13;;;1.70;;
65182;SDS011;51771;51.068;-1.780;2024-02-21T07:49:53;5.18;;;1.20;;
65182;SDS011;51771;51.068;-1.780;2024-02-21T07:52:19;6.93;;;1.38;;
65182;SDS011;51771;51.068;-1.780;2024-02-21T07:57:22;8.50;;;1.30;;
65182;SDS011;51771;51.068;-1.780;2024-02-21T07:59:48;8.48;;;1.65;;
65182;SDS011;51771;51.068;-1.780;2024-02-21T08:02:16;4.45;;;2.35;;
65182;SDS011;51771;51.068;-1.780;2024-02-21T08:07:07;6.55;;;1.67;;
65182;SDS011;51771;51.068;-1.780;2024-02-21T08:09:33;5.40;;;1.42;;
65182;SDS011;51771;51.068;-1.780;2024-02-21T08:11:58;3.40;;;0.98;;
65182;SDS011;51771;51.068;-1.780;2024-02-21T08:14:23;8.35;;;1.40;;
65182;SDS011;51771;51.068;-1.780;2024-02-21T08:16:50;5.25;;;1.10;;
65182;SDS011;51771;51.068;-1.780;2024-02-21T08:19:18;10.70;;;1.25;;
65182;SDS011;51771;51.068;-1.780;2024-02-21T08:21:43;7.88;;;1.40;;
65182;SDS011;51771;51.068;-1.780;2024-02-21T08:24:09;3.08;;;1.15;;
65182;SDS011;51771;51.068;-1.780;2024-02-21T08:26:35;6.35;;;1.20;;
65182;SDS011;51771;51.068;-1.780;2024-02-21T08:29:05;11.32;;;1.73;;
65182;SDS011;51771;51.068;-1.780;2024-02-21T08:31:30;5.75;;;1.20;;
65182;SDS011;51771;51.068;-1.780;2024-02-21T08:33:57;5.10;;;0.95;;
65182;SDS011;51771;51.068;-1.780;2024-02-21T08:36:27;8.82;;;1.10;;
65182;SDS011;51771;51.068;-1.780;2024-02-21T08:38:54;6.65;;;0.90;;
65182;SDS011;51771;51.068;-1.780;2024-02-21T08:41:19;4.63;;;1.23;;
65182;SDS011;51771;51.068;-1.780;2024-02-21T08:43:46;9.02;;;1.27;;
65182;SDS011;51771;51.068;-1.780;2024-02-21T08:46:12;5.65;;;1.48;;
65182;SDS011;51771;51.068;-1.780;2024-02-21T08:48:37;8.35;;;1.20;;
65182;SDS011;51771;51.068;-1.780;2024-02-21T08:51:02;6.25;;;1.35;;
65182;SDS011;51771;51.068;-1.780;2024-02-21T08:53:28;5.35;;;1.20;;
65182;SDS011;51771;51.068;-1.780;2024-02-21T08:55:53;4.43;;;0.82;;
65182;SDS011;51771;51.068;-1.780;2024-02-21T08:58:19;4.60;;;1.20;;
65182;SDS011;51771;51.068;-1.780;2024-02-21T09:00:44;5.80;;;1.63;;
65182;SDS011;51771;51.068;-1.780;2024-02-21T09:03:09;7.00;;;1.52;;
65182;SDS011;51771;51.068;-1.780;2024-02-21T09:05:34;9.13;;;1.35;;
65182;SDS011;51771;51.068;-1.780;2024-02-21T09:08:00;5.18;;;1.92;;
65182;SDS011;51771;51.068;-1.780;2024-02-21T09:10:25;9.43;;;1.60;;
65182;SDS011;51771;51.068;-1.780;2024-02-21T09:12:51;5.68;;;1.10;;
65182;SDS011;51771;51.068;-1.780;2024-02-21T09:15:16;5.95;;;1.58;;
65182;SDS011;51771;51.068;-1.780;2024-02-21T09:17:41;6.80;;;1.55;;
65182;SDS011;51771;51.068;-1.780;2024-02-21T09:20:07;6.10;;;1.20;;
65182;SDS011;51771;51.068;-1.780;2024-02-21T09:22:33;4.22;;;0.90;;
65182;SDS011;51771;51.068;-1.780;2024-02-21T09:24:59;2.88;;;1.08;;
65182;SDS011;51771;51.068;-1.780;2024-02-21T09:27:25;4.03;;;1.10;;
65182;SDS011;51771;51.068;-1.780;2024-02-21T09:29:50;3.95;;;1.15;;
65182;SDS011;51771;51.068;-1.780;2024-02-21T09:32:16;4.47;;;1.27;;
65182;SDS011;51771;51.068;-1.780;2024-02-21T09:34:41;10.65;;;1.77;;
65182;SDS011;51771;51.068;-1.780;2024-02-21T09:37:07;6.28;;;1.45;;
65182;SDS011;51771;51.068;-1.780;2024-02-21T09:39:33;9.88;;;1.52;;
65182;SDS011;51771;51.068;-1.780;2024-02-21T09:41:59;6.57;;;1.05;;
65182;SDS011;51771;51.068;-1.780;2024-02-21T09:44:30;3.05;;;0.95;;
65182;SDS011;51771;51.068;-1.780;2024-02-21T09:47:05;4.82;;;1.20;;
65182;SDS011;51771;51.068;-1.780;2024-02-21T09:49:34;8.85;;;1.27;;
65182;SDS011;51771;51.068;-1.780;2024-02-21T09:52:04;2.55;;;0.90;;
65182;SDS011;51771;51.068;-1.780;2024-02-21T09:54:30;7.68;;;1.83;;
65182;SDS011;51771;51.068;-1.780;2024-02-21T09:56:59;2.25;;;0.90;;
65182;SDS011;51771;51.068;-1.780;2024-02-21T09:59:28;2.88;;;1.20;;
65182;SDS011;51771;51.068;-1.780;2024-02-21T10:01:55;6.18;;;1.15;;
65182;SDS011;51771;51.068;-1.780;2024-02-21T10:04:20;6.20;;;0.93;;
65182;SDS011;51771;51.068;-1.780;2024-02-21T10:06:46;2.80;;;1.00;;
65182;SDS011;51771;51.068;-1.780;2024-02-21T10:09:25;6.50;;;1.15;;
65182;SDS011;51771;51.068;-1.780;2024-02-21T10:11:55;2.20;;;0.80;;
65182;SDS011;51771;51.068;-1.780;2024-02-21T10:14:20;2.47;;;0.60;;
65182;SDS011;51771;51.068;-1.780;2024-02-21T10:16:57;2.85;;;1.17;;
65182;SDS011;51771;51.068;-1.780;2024-02-21T10:19:24;2.00;;;0.70;;
65182;SDS011;51771;51.068;-1.780;2024-02-21T10:22:02;4.63;;;0.65;;
65182;SDS011;51771;51.068;-1.780;2024-02-21T10:24:29;7.18;;;1.40;;
65182;SDS011;51771;51.068;-1.780;2024-02-21T10:26:58;4.32;;;0.73;;
65182;SDS011;51771;51.068;-1.780;2024-02-21T10:29:25;7.65;;;1.13;;
65182;SDS011;51771;51.068;-1.780;2024-02-21T10:31:50;7.68;;;1.25;;
65182;SDS011;51771;51.068;-1.780;2024-02-21T10:34:16;5.78;;;0.70;;
65182;SDS011;51771;51.068;-1.780;2024-02-21T10:36:43;7.07;;;0.80;;
65182;SDS011;51771;51.068;-1.780;2024-02-21T10:39:08;4.65;;;0.90;;
65182;SDS011;51771;51.068;-1.780;2024-02-21T10:41:34;2.80;;;1.00;;
65182;SDS011;51771;51.068;-1.780;2024-02-21T10:44:01;6.50;;;0.93;;
65182;SDS011;51771;51.068;-1.780;2024-02-21T10:51:29;8.95;;;2.00;;
65182;SDS011;51771;51.068;-1.780;2024-02-21T10:56:49;8.18;;;1.25;;
65182;SDS011;51771;51.068;-1.780;2024-02-21T10:59:16;3.25;;;1.10;;
65182;SDS011;51771;51.068;-1.780;2024-02-21T11:01:42;6.90;;;1.20;;
65182;SDS011;51771;51.068;-1.780;2024-02-21T11:04:08;4.80;;;0.93;;
65182;SDS011;51771;51.068;-1.780;2024-02-21T11:06:37;3.63;;;1.15;;
65182;SDS011;51771;51.068;-1.780;2024-02-21T11:11:49;2.88;;;1.00;;
65182;SDS011;51771;51.068;-1.780;2024-02-21T11:14:18;4.35;;;1.17;;
65182;SDS011;51771;51.068;-1.780;2024-02-21T11:16:44;2.20;;;0.40;;
65182;SDS011;51771;51.068;-1.780;2024-02-21T11:19:20;4.47;;;0.90;;
65182;SDS011;51771;51.068;-1.780;2024-02-21T11:21:47;2.03;;;0.40;;
65182;SDS011;51771;51.068;-1.780;2024-02-21T11:24:13;1.65;;;0.60;;
65182;SDS011;51771;51.068;-1.780;2024-02-21T11:26:39;3.72;;;0.75;;
65182;SDS011;51771;51.068;-1.780;2024-02-21T11:29:07;1.88;;;0.55;;
65182;SDS011;51771;51.068;-1.780;2024-02-21T11:31:40;4.70;;;0.70;;
65182;SDS011;51771;51.068;-1.780;2024-02-21T11:34:10;1.77;;;0.45;;
65182;SDS011;51771;51.068;-1.780;2024-02-21T11:36:45;7.90;;;0.80;;
65182;SDS011;51771;51.068;-1.780;2024-02-21T11:39:20;2.80;;;0.70;;
65182;SDS011;51771;51.068;-1.780;2024-02-21T11:41:47;3.25;;;0.50;;
65182;SDS011;51771;51.068;-1.780;2024-02-21T11:44:23;1.92;;;0.55;;
65182;SDS011;51771;51.068;-1.780;2024-02-21T11:46:48;3.10;;;1.20;;
65182;SDS011;51771;51.068;-1.780;2024-02-21T11:49:14;1.38;;;0.30;;
65182;SDS011;51771;51.068;-1.780;2024-02-21T11:51:39;3.70;;;0.63;;
65182;SDS011;51771;51.068;-1.780;2024-02-21T11:54:05;1.80;;;0.40;;
65182;SDS011;51771;51.068;-1.780;2024-02-21T11:56:31;2.28;;;0.50;;
65182;SDS011;51771;51.068;-1.780;2024-02-21T11:58:58;7.65;;;1.20;;
65182;SDS011;51771;51.068;-1.780;2024-02-21T12:01:24;3.10;;;0.32;;
65182;SDS011;51771;51.068;-1.780;2024-02-21T12:03:49;1.80;;;0.50;;
65182;SDS011;51771;51.068;-1.780;2024-02-21T12:06:16;2.72;;;0.50;;
65182;SDS011;51771;51.068;-1.780;2024-02-21T12:08:46;3.70;;;0.55;;
65182;SDS011;51771;51.068;-1.780;2024-02-21T12:11:21;5.18;;;0.63;;
65182;SDS011;51771;51.068;-1.780;2024-02-21T12:13:58;0.80;;;0.30;;
65182;SDS011;51771;51.068;-1.780;2024-02-21T12:16:25;4.15;;;0.82;;
65182;SDS011;51771;51.068;-1.780;2024-02-21T12:18:52;2.22;;;0.50;;
65182;SDS011;51771;51.068;-1.780;2024-02-21T12:21:29;3.05;;;0.50;;
65182;SDS011;51771;51.068;-1.780;2024-02-21T12:23:57;2.40;;;0.43;;
65182;SDS011;51771;51.068;-1.780;2024-02-21T12:26:25;4.78;;;0.82;;
65182;SDS011;51771;51.068;-1.780;2024-02-21T12:28:51;5.05;;;0.73;;
65182;SDS011;51771;51.068;-1.780;2024-02-21T12:31:18;2.50;;;0.60;;
65182;SDS011;51771;51.068;-1.780;2024-02-21T12:33:44;1.88;;;0.45;;
65182;SDS011;51771;51.068;-1.780;2024-02-21T12:36:09;4.50;;;0.40;;
65182;SDS011;51771;51.068;-1.780;2024-02-21T12:38:35;1.90;;;0.38;;
65182;SDS011;51771;51.068;-1.780;2024-02-21T12:41:01;2.58;;;0.60;;
65182;SDS011;51771;51.068;-1.780;2024-02-21T12:43:26;3.00;;;0.63;;
65182;SDS011;51771;51.068;-1.780;2024-02-21T12:45:52;1.35;;;0.35;;
65182;SDS011;51771;51.068;-1.780;2024-02-21T12:48:17;5.07;;;0.70;;
65182;SDS011;51771;51.068;-1.780;2024-02-21T12:50:49;5.50;;;0.63;;
65182;SDS011;51771;51.068;-1.780;2024-02-21T12:55:46;3.47;;;0.77;;
65182;SDS011;51771;51.068;-1.780;2024-02-21T12:58:11;4.43;;;1.23;;
65182;SDS011;51771;51.068;-1.780;2024-02-21T13:00:38;5.50;;;0.73;;
65182;SDS011;51771;51.068;-1.780;2024-02-21T13:03:04;6.57;;;0.98;;
65182;SDS011;51771;51.068;-1.780;2024-02-21T13:05:29;2.45;;;0.60;;
65182;SDS011;51771;51.068;-1.780;2024-02-21T13:07:57;4.57;;;0.77;;
65182;SDS011;51771;51.068;-1.780;2024-02-21T13:10:22;2.85;;;0.82;;
65182;SDS011;51771;51.068;-1.780;2024-02-21T13:12:48;3.55;;;0.90;;
65182;SDS011;51771;51.068;-1.780;2024-02-21T13:15:13;8.10;;;0.85;;
65182;SDS011;51771;51.068;-1.780;2024-02-21T13:17:41;4.93;;;0.70;;
65182;SDS011;51771;51.068;-1.780;2024-02-21T13:20:06;5.03;;;0.90;;
65182;SDS011;51771;51.068;-1.780;2024-02-21T13:22:33;3.38;;;1.00;;
65182;SDS011;51771;51.068;-1.780;2024-02-21T13:24:59;4.03;;;0.80;;
65182;SDS011;51771;51.068;-1.780;2024-02-21T13:27:24;3.90;;;1.30;;
65182;SDS011;51771;51.068;-1.780;2024-02-21T13:29:49;3.42;;;0.70;;
65182;SDS011;51771;51.068;-1.780;2024-02-21T13:32:15;5.30;;;0.60;;
65182;SDS011;51771;51.068;-1.780;2024-02-21T13:34:40;3.78;;;0.90;;
65182;SDS011;51771;51.068;-1.780;2024-02-21T13:37:07;6.00;;;0.80;;
65182;SDS011;51771;51.068;-1.780;2024-02-21T13:39:34;1.98;;;0.68;;
65182;SDS011;51771;51.068;-1.780;2024-02-21T13:42:00;8.57;;;1.05;;
65182;SDS011;51771;51.068;-1.780;2024-02-21T13:44:25;3.20;;;0.60;;
65182;SDS011;51771;51.068;-1.780;2024-02-21T13:46:51;3.13;;;0.75;;
65182;SDS011;51771;51.068;-1.780;2024-02-21T13:49:16;3.70;;;0.75;;
65182;SDS011;51771;51.068;-1.780;2024-02-21T13:51:41;4.30;;;0.80;;
65182;SDS011;51771;51.068;-1.780;2024-02-21T13:54:09;4.57;;;0.93;;
65182;SDS011;51771;51.068;-1.780;2024-02-21T13:56:36;4.65;;;1.02;;
65182;SDS011;51771;51.068;-1.780;2024-02-21T13:59:02;5.43;;;0.73;;
65182;SDS011;51771;51.068;-1.780;2024-02-21T14:01:27;1.48;;;0.60;;
65182;SDS011;51771;51.068;-1.780;2024-02-21T14:03:57;3.63;;;0.82;;
65182;SDS011;51771;51.068;-1.780;2024-02-21T14:06:22;4.60;;;1.02;;
65182;SDS011;51771;51.068;-1.780;2024-02-21T14:08:47;4.28;;;0.77;;
65182;SDS011;51771;51.068;-1.780;2024-02-21T14:11:13;5.55;;;1.23;;
65182;SDS011;51771;51.068;-1.780;2024-02-21T14:13:39;5.57;;;0.98;;
65182;SDS011;51771;51.068;-1.780;2024-02-21T14:16:08;3.42;;;0.88;;
65182;SDS011;51771;51.068;-1.780;2024-02-21T14:18:36;5.88;;;0.90;;
65182;SDS011;51771;51.068;-1.780;2024-02-21T14:21:02;4.00;;;0.73;;
65182;SDS011;51771;51.068;-1.780;2024-02-21T14:23:28;6.68;;;1.20;;
65182;SDS011;51771;51.068;-1.780;2024-02-21T14:25:54;4.13;;;0.90;;
65182;SDS011;51771;51.068;-1.780;2024-02-21T14:28:19;7.80;;;2.05;;
65182;SDS011;51771;51.068;-1.780;2024-02-21T14:30:44;8.27;;;1.10;;
65182;SDS011;51771;51.068;-1.780;2024-02-21T14:33:12;6.88;;;1.50;;
65182;SDS011;51771;51.068;-1.780;2024-02-21T14:35:38;6.07;;;1.20;;
65182;SDS011;51771;51.068;-1.780;2024-02-21T14:38:03;9.70;;;1.38;;
65182;SDS011;51771;51.068;-1.780;2024-02-21T14:40:29;9.27;;;1.48;;
65182;SDS011;51771;51.068;-1.780;2024-02-21T14:42:55;6.43;;;1.50;;